ADDS METAR Data INFO
IDs: Format: Raw Decoded Include TAF

Data at: 0341 UTC 17 Jul 2018

METAR for:K4I3 (Mount Vernon/Knox Cn, OH, US)
Text:K4I3 170337Z AUTO 27003KT 10SM SCT070 22/22 A2996 RMK AO2
Temperature: 22.0°C ( 72°F)
Dewpoint: 22.0°C ( 72°F) [RH = 100%]
Pressure (altimeter):29.96 inches Hg (1014.6 mb)
Winds:from the W (270 degrees) at 3 MPH (3 knots; 1.5 m/s)
Visibility:10 or more sm (16+ km)
Ceiling:at least 12,000 feet AGL
Clouds: scattered clouds at 7000 feet AGL
QC Flag:automated observation with no human augmentation